Hauptseite
METAR-TAF:

METAR-TAF

Flughäfen :

Flughafen Port Harcourt

Port Harcourt, Nigeria

Breite: 04-51N, Länge: 007-01E, Höhe: 18 m

Beobachtung

Neuester Wetterbericht von vor 6 Stunden und 10 Minuten, um 21:00 UTC
Wind 3 kt aus Südwest
Temperatur 27°C
Luftfeuchtigkeit 89%
Luftdruck 1012 hPa
Sichtweite 10 km oder mehr
Aufgelockert bewölkt in der Höhe von 900 ft
Leicht bewölkt in der Höhe von 2000 ft, Kumulonimbus.
Gewitter,

METAR: DNPO 172100Z 22003KT 9999 TS SCT009 FEW020CB 27/25 Q1012 NOSIG

Zeit: 04:10 (03:10 UTC)


TAF: fehlend

Wetterbeobachtungen und Prognosen von mehr als 4000 Flughäfen (METAR und TAF Bericht).

Die verfügbaren Stationen werden durch gelbe und rote Markierungen auf der Karte dargestellt.

Führen Sie die Maus auf sie, um den Namen der Station zu sehen.

Darauf klicken, um die Beobachtung von Wetterbeobachtungen und Prognosen zu sehen.

Um die Karte zu ändern : klicken Sie auf den grünen Tasten mit einem schwarzen Kreuz Zum Vergrößern, auf den grünen Button mit einem Gedankenstrich zu verkleinern, oder auf die grünen Pfeile für benachbarte Karten.


METAR-TAF: